Villa Alegre, Puerto Rico
Current Conditions -  °F | °C
As of 1:24 PM on Friday 31 Oct 2014 (Local Time) from TJSJ Reporting Station
Light Rain Light Rain  
Wind Chill: 27°   Ceiling: 9000
Heat Index: 31°   Visibility: 10mi
Dew Point: 25°   Wind: 3mph
Humidity: 89%   Direction: 100°E
Pressure: 29.87"   Gusts: NA
Location:  18.2551°N, 65.9776°W
Report Text: TJSJ 311724Z 10003KT 10SM -RA SCT045 SCT060 BKN090 27/25 A2987 RMK AO2 TSE23 TS DSIPTD P0000
Loading
Personal Weather Stations






























Interactive Weather Map
Tropical Storm Tracking
New forecast layout! Learn more

10-Day Weather Forecast

Advertisements
Track Severe Weather on mobile